LFBU/ANG METAR and TAF weather

Enter ICAO airport designator
Station Type Date Time Source
LFBU METAR 2019/05/25 09:00 UTC NOAA

LFBU 250900Z AUTO 31006KT 280V340 9999 BKN016 BKN021 BKN026 16/12 Q1021 TEMPO BKN010


Station Type Date Time Source
LFBU Decoded METAR 2019/05/25 09:00 UTC NOAA

Station name not available
May 25, 2019 - 05:00 AM EDT / 2019.05.25 0900 UTC
Wind: from the NW (310 degrees) at 7 MPH (6 KT) (direction variable):0
Visibility: greater than 7 mile(s):0
Sky conditions: mostly cloudy
Temperature: 60 F (16 C)
Dew Point: 53 F (12 C)
Relative Humidity: 77%
Pressure (altimeter): 30.15 in. Hg (1021 hPa)
ob: LFBU 250900Z AUTO 31006KT 280V340 9999 BKN016 BKN021 BKN026 16/12 Q1021 TEMPO BKN010
cycle: 9

Station Type Date Time Source
LFBU TAF 2019/05/25 08:00 UTC NOAA

TAF
AMD LFBU 250813Z 2508/2606 34005KT CAVOK
TEMPO 2508/2510 BKN010
TEMPO 2510/2516 BKN030

Example: see airport list